This is the latest recevied weather packets stored in our database for station/object K7NDG. If no packets are shown the sender has not sent any weather packets the latest 10 day(s).
| Time | Temp. | Humidity | Pressure | Rain* | Wind** | Luminosity | Snow |
|---|---|---|---|---|---|---|---|
| 1777512308 | 19.44° C | 56% | 1022.1 hPa | 0 mm | - | 53 W/m² | - |
| 1777512004 | 20° C | 55% | 1022.3 hPa | 0 mm | - | 73 W/m² | - |
| 1777511703 | 20° C | 56% | 1022 hPa | 0 mm | - | 48 W/m² | - |
| 1777511400 | 20° C | 55% | 1022.1 hPa | 0 mm | - | 44 W/m² | - |
| 1777511096 | 20° C | 54% | 1022.1 hPa | 0 mm | - | 49 W/m² | - |
| 1777509576 | 20.56° C | 53% | 1022.4 hPa | 0 mm | - | 77 W/m² | - |
| 1777509274 | 20.56° C | 53% | 1022.3 hPa | 0 mm | - | 154 W/m² | - |
| 1777508971 | 21.11° C | 52% | 1022.2 hPa | 0 mm | - | 295 W/m² | - |
| 1777508668 | 21.11° C | 52% | 1022.4 hPa | 0 mm | - | 254 W/m² | - |
| 1777508365 | 21.11° C | 53% | 1022 hPa | 0 mm | - | 316 W/m² | - |
| 1777508062 | 21.11° C | 51% | 1022.2 hPa | 0 mm | - | 372 W/m² | - |
| 1777507456 | 21.11° C | 51% | 1022.3 hPa | 0 mm | - | 369 W/m² | - |
| 1777507153 | 21.11° C | 52% | 1022.2 hPa | 0 mm | - | 399 W/m² | - |
| 1777506851 | 21.11° C | 52% | 1022.5 hPa | 0 mm | - | 420 W/m² | - |
| 1777506548 | 21.11° C | 53% | 1022.4 hPa | 0 mm | - | 262 W/m² | - |
| 1777505635 | 21.67° C | 51% | 1022.3 hPa | 0 mm | - | 410 W/m² | - |
| 1777502300 | 21.11° C | 54% | 1023 hPa | 0 mm | - | 623 W/m² | - |
| 1777501995 | 21.11° C | 55% | 1023 hPa | 0 mm | - | 646 W/m² | - |
| 1777501692 | 21.11° C | 55% | 1023.2 hPa | 0 mm | - | 678 W/m² | - |
| 1777500482 | 20.56° C | 57% | 1023.5 hPa | 0 mm | - | 461 W/m² | - |
| 1777500177 | 21.11° C | 55% | 1023.6 hPa | 0 mm | - | 674 W/m² | - |
| 1777499875 | 21.11° C | 56% | 1023.7 hPa | 0 mm | - | 641 W/m² | - |
| 1777499571 | 21.11° C | 54% | 1023.5 hPa | 0 mm | - | 667 W/m² | - |
| 1777498662 | 20.56° C | 57% | 1023.7 hPa | 0 mm | - | 661 W/m² | - |
| 1777498358 | 20.56° C | 57% | 1023.7 hPa | 0 mm | - | 647 W/m² | - |
* Rain latest hour (hover to see other rain measurements)
** Current wind speed in m/s (hover to see current wind gust speed)